createdAt,value
2019-02-19T00:06:38.032Z,9.91
2019-02-19T00:16:38.234Z,9.75
2019-02-19T00:26:37.954Z,9.63
2019-02-19T00:36:39.541Z,9.32
2019-02-19T00:46:39.013Z,9.09
2019-02-19T00:56:38.113Z,8.84
2019-02-19T01:06:37.967Z,8.65
2019-02-19T01:16:38.021Z,8.54
2019-02-19T01:26:39.185Z,8.50
2019-02-19T01:36:40.201Z,8.63
2019-02-19T01:46:38.013Z,8.67
2019-02-19T01:56:38.663Z,8.60
2019-02-19T02:06:37.932Z,8.54
2019-02-19T02:16:37.988Z,8.48
2019-02-19T02:26:37.958Z,8.40
2019-02-19T02:36:38.020Z,8.35
2019-02-19T02:46:37.988Z,8.32
2019-02-19T02:56:38.002Z,8.22
2019-02-19T03:06:38.056Z,7.97
2019-02-19T03:16:38.039Z,7.65
2019-02-19T03:26:37.988Z,7.51
2019-02-19T03:36:37.983Z,7.41
2019-02-19T03:46:38.021Z,7.32
2019-02-19T03:56:37.951Z,7.21
2019-02-19T04:06:37.957Z,7.16
2019-02-19T04:16:37.965Z,7.13
2019-02-19T04:26:38.001Z,7.13
2019-02-19T04:36:37.855Z,7.07
2019-02-19T04:46:38.011Z,7.08
2019-02-19T04:56:38.002Z,7.06
2019-02-19T05:06:38.182Z,7.05
2019-02-19T05:16:40.998Z,7.04
2019-02-19T05:26:37.972Z,6.99
2019-02-19T05:36:37.944Z,7.00
2019-02-19T05:46:38.056Z,6.95
2019-02-19T05:56:37.966Z,6.98
2019-02-19T06:06:37.913Z,7.01
2019-02-19T06:16:40.118Z,6.98
2019-02-19T06:26:38.006Z,6.97
2019-02-19T06:36:37.892Z,6.92
2019-02-19T06:46:37.939Z,6.96
2019-02-19T06:56:37.924Z,7.02
2019-02-19T07:06:39.131Z,7.09
2019-02-19T07:16:38.735Z,7.15
2019-02-19T07:26:38.865Z,7.19
2019-02-19T07:36:37.947Z,7.19
2019-02-19T07:46:37.911Z,7.22
2019-02-19T07:56:37.995Z,7.26
2019-02-19T08:06:37.999Z,7.29
2019-02-19T08:16:38.004Z,7.33
2019-02-19T08:26:38.006Z,7.40
2019-02-19T08:36:38.047Z,7.30
2019-02-19T08:46:38.079Z,7.87
2019-02-19T08:56:38.187Z,8.79
2019-02-19T09:06:38.063Z,9.15
2019-02-19T09:16:39.457Z,9.29
2019-02-19T09:26:38.065Z,9.61
2019-02-19T09:36:39.106Z,9.91
2019-02-19T09:46:38.500Z,10.00
2019-02-19T09:56:38.946Z,10.03
2019-02-19T10:06:38.087Z,10.47
2019-02-19T10:16:41.703Z,10.33
2019-02-19T10:26:38.047Z,10.41
2019-02-19T10:36:39.357Z,10.62
2019-02-19T10:46:38.093Z,11.16
2019-02-19T10:56:38.600Z,11.15
2019-02-19T11:06:39.076Z,11.23
2019-02-19T11:16:40.411Z,11.54
2019-02-19T11:26:38.103Z,11.89
2019-02-19T11:36:38.007Z,11.98
2019-02-19T11:46:38.091Z,12.54
2019-02-19T11:56:38.982Z,11.88
2019-02-19T12:06:38.055Z,12.77
2019-02-19T12:16:40.101Z,13.32
2019-02-19T12:26:39.235Z,12.56
2019-02-19T12:36:39.776Z,12.94
2019-02-19T12:46:38.071Z,13.28
2019-02-19T12:56:38.048Z,12.73
2019-02-19T13:06:37.930Z,13.52
2019-02-19T13:16:38.791Z,13.36
2019-02-19T13:26:38.124Z,14.47
2019-02-19T13:36:38.074Z,12.42
2019-02-19T13:46:38.072Z,13.56
2019-02-19T13:56:38.202Z,13.19
2019-02-19T14:06:37.970Z,12.32
2019-02-19T14:16:41.396Z,13.88
2019-02-19T14:26:38.472Z,12.93
2019-02-19T14:36:38.121Z,10.97
2019-02-19T14:46:38.063Z,12.59
2019-02-19T14:56:38.049Z,12.26
2019-02-19T15:06:38.042Z,12.24
2019-02-19T15:16:37.940Z,11.87
2019-02-19T15:26:38.005Z,12.18
2019-02-19T15:36:38.085Z,10.98
2019-02-19T15:46:38.361Z,10.50
2019-02-19T15:56:37.999Z,10.95
2019-02-19T16:06:38.073Z,10.98
2019-02-19T16:16:39.537Z,10.23
2019-02-19T16:26:38.073Z,9.52
2019-02-19T16:36:37.988Z,9.17
2019-02-19T16:46:38.128Z,8.94
2019-02-19T16:56:38.083Z,8.75
2019-02-19T17:06:39.102Z,8.59
2019-02-19T17:16:38.115Z,8.36
2019-02-19T17:26:38.024Z,8.19
2019-02-19T17:36:38.104Z,8.09
2019-02-19T17:46:38.081Z,8.00
2019-02-19T17:56:38.053Z,7.92
2019-02-19T18:06:37.913Z,7.80
2019-02-19T18:16:38.053Z,7.70
2019-02-19T18:26:38.047Z,7.72
2019-02-19T18:36:37.976Z,7.67
2019-02-19T18:46:37.970Z,7.58
2019-02-19T18:56:37.956Z,7.47
2019-02-19T19:06:38.000Z,7.38
2019-02-19T19:16:37.897Z,7.34
2019-02-19T19:26:37.960Z,7.28
2019-02-19T19:36:38.020Z,7.16
2019-02-19T19:46:37.876Z,7.11
2019-02-19T19:56:37.953Z,7.04
2019-02-19T20:06:38.153Z,6.96
2019-02-19T20:16:37.946Z,6.90
2019-02-19T20:26:37.951Z,6.90
2019-02-19T20:36:37.951Z,6.81
2019-02-19T20:46:38.003Z,6.82
2019-02-19T20:56:37.939Z,6.81
2019-02-19T21:06:37.942Z,6.75
2019-02-19T21:16:37.955Z,6.77
2019-02-19T21:26:37.943Z,6.71
2019-02-19T21:36:37.931Z,6.41
2019-02-19T21:46:37.930Z,6.08
2019-02-19T21:56:37.930Z,5.92
2019-02-19T22:06:37.928Z,5.85
2019-02-19T22:16:38.414Z,5.82
2019-02-19T22:26:37.962Z,6.03
2019-02-19T22:36:37.890Z,5.85
2019-02-19T22:46:37.962Z,5.46
2019-02-19T22:56:37.814Z,5.42
2019-02-19T23:06:37.877Z,5.29
2019-02-19T23:16:38.022Z,5.11
2019-02-19T23:26:37.922Z,5.09
2019-02-19T23:36:37.937Z,5.15
2019-02-19T23:46:38.875Z,5.15
2019-02-19T23:56:37.944Z,5.44
